createdAt,value
2023-04-18T00:00:27.278Z,15.00
2023-04-18T00:03:30.407Z,15.00
2023-04-18T00:06:33.178Z,15.10
2023-04-18T00:09:35.534Z,15.00
2023-04-18T00:12:37.809Z,15.00
2023-04-18T00:15:41.890Z,15.00
2023-04-18T00:18:44.146Z,15.00
2023-04-18T00:21:47.337Z,15.00
2023-04-18T00:24:50.879Z,15.10
2023-04-18T00:27:53.064Z,15.00
2023-04-18T00:30:55.372Z,15.00
2023-04-18T00:34:00.412Z,15.00
2023-04-18T00:37:02.624Z,15.00
2023-04-18T00:40:05.997Z,15.00
2023-04-18T00:43:08.995Z,15.00
2023-04-18T00:46:11.482Z,15.00
2023-04-18T00:49:13.960Z,15.00
2023-04-18T00:52:16.724Z,15.00
2023-04-18T00:55:19.753Z,15.00
2023-04-18T00:58:22.186Z,15.00
2023-04-18T01:01:24.471Z,15.00
2023-04-18T01:04:27.598Z,15.00
2023-04-18T01:07:33.782Z,15.00
2023-04-18T01:10:37.479Z,15.00
2023-04-18T01:13:39.852Z,15.00
2023-04-18T01:16:42.091Z,15.00
2023-04-18T01:19:44.690Z,15.00
2023-04-18T01:22:47.018Z,15.00
2023-04-18T01:25:52.439Z,14.90
2023-04-18T01:28:54.868Z,14.90
2023-04-18T01:31:58.590Z,14.90
2023-04-18T01:35:00.949Z,14.90
2023-04-18T01:38:03.283Z,14.90
2023-04-18T01:41:05.593Z,14.90
2023-04-18T01:44:07.861Z,14.90
2023-04-18T01:47:10.113Z,14.90
2023-04-18T01:50:13.078Z,14.90
2023-04-18T01:53:15.398Z,14.90
2023-04-18T01:56:19.622Z,14.90
2023-04-18T01:59:21.895Z,14.90
2023-04-18T02:02:24.271Z,14.90
2023-04-18T02:05:27.571Z,14.90
2023-04-18T02:08:31.146Z,14.90
2023-04-18T02:11:33.772Z,14.90
2023-04-18T02:14:38.636Z,14.90
2023-04-18T02:17:42.097Z,14.90
2023-04-18T02:20:45.398Z,14.90
2023-04-18T02:23:47.726Z,14.90
2023-04-18T02:26:50.867Z,14.90
2023-04-18T02:29:54.223Z,14.90
2023-04-18T02:32:59.427Z,14.90
2023-04-18T02:36:02.066Z,14.90
2023-04-18T02:39:04.490Z,14.90
2023-04-18T02:42:06.829Z,14.90
2023-04-18T02:45:09.650Z,14.90
2023-04-18T02:48:11.960Z,14.90
2023-04-18T02:51:14.353Z,14.80
2023-04-18T02:54:17.776Z,14.80
2023-04-18T02:57:29.092Z,14.80
2023-04-18T03:00:44.892Z,14.80
2023-04-18T03:04:16.796Z,14.80
2023-04-18T03:07:25.645Z,14.80
2023-04-18T03:10:28.050Z,14.80
2023-04-18T03:13:31.234Z,14.80
2023-04-18T03:16:34.070Z,14.80
2023-04-18T03:19:38.264Z,14.80
2023-04-18T03:22:44.536Z,14.80
2023-04-18T03:25:48.115Z,14.80
2023-04-18T03:28:50.912Z,14.80
2023-04-18T03:31:53.325Z,14.80
2023-04-18T03:34:55.803Z,14.80
2023-04-18T03:37:58.181Z,14.80
2023-04-18T03:41:04.335Z,14.80
2023-04-18T03:44:09.905Z,14.80
2023-04-18T03:47:17.531Z,14.80
2023-04-18T03:50:24.567Z,14.80
2023-04-18T03:53:28.160Z,14.80
2023-04-18T03:56:31.401Z,14.80
2023-04-18T03:59:34.883Z,14.80
2023-04-18T04:02:37.492Z,14.80
2023-04-18T04:05:40.173Z,14.80
2023-04-18T04:08:42.637Z,14.80
2023-04-18T04:11:46.356Z,14.80
2023-04-18T04:14:50.435Z,14.80
2023-04-18T04:17:53.257Z,14.80
2023-04-18T04:20:56.470Z,14.80
2023-04-18T04:24:10.638Z,14.80
2023-04-18T04:27:19.132Z,14.70
2023-04-18T04:30:22.961Z,14.80
2023-04-18T04:33:28.905Z,14.80
2023-04-18T04:36:35.953Z,14.80
2023-04-18T04:39:40.884Z,14.80
2023-04-18T04:43:16.628Z,14.80
2023-04-18T04:46:21.045Z,14.70
2023-04-18T04:49:25.586Z,14.70
2023-04-18T04:52:27.956Z,14.70
2023-04-18T04:55:30.438Z,14.70
2023-04-18T04:58:32.935Z,14.70
2023-04-18T05:01:41.203Z,14.70
2023-04-18T05:04:43.780Z,14.70
2023-04-18T05:07:46.097Z,14.70
2023-04-18T05:10:49.984Z,14.70
2023-04-18T05:13:52.183Z,14.70
2023-04-18T05:16:56.048Z,14.70
2023-04-18T05:19:58.360Z,14.70
2023-04-18T05:23:00.546Z,14.70
2023-04-18T05:26:06.258Z,14.70
2023-04-18T05:29:08.531Z,14.70
2023-04-18T05:32:10.862Z,14.70
2023-04-18T05:35:13.385Z,14.70
2023-04-18T05:38:15.685Z,14.70
2023-04-18T05:41:17.955Z,14.70
2023-04-18T05:44:20.630Z,14.70
2023-04-18T05:47:27.006Z,14.70
2023-04-18T05:50:29.509Z,14.70
2023-04-18T05:53:31.992Z,14.70
2023-04-18T05:56:34.372Z,14.70
2023-04-18T05:59:36.575Z,14.70
2023-04-18T06:02:39.274Z,14.80
2023-04-18T06:05:41.779Z,14.80
2023-04-18T06:08:46.197Z,14.80
2023-04-18T06:11:48.422Z,14.80
2023-04-18T06:14:51.264Z,14.80
2023-04-18T06:17:53.562Z,14.80
2023-04-18T06:20:55.911Z,14.80
2023-04-18T06:23:58.235Z,14.80
2023-04-18T06:27:02.126Z,14.80
2023-04-18T06:30:06.034Z,14.80
2023-04-18T06:33:11.299Z,14.80
2023-04-18T06:36:13.644Z,14.80
2023-04-18T06:39:15.947Z,14.80
2023-04-18T06:42:19.669Z,14.80
2023-04-18T06:45:23.400Z,14.80
2023-04-18T06:48:25.897Z,14.80
2023-04-18T06:51:28.425Z,14.80
2023-04-18T06:54:30.889Z,14.80
2023-04-18T06:57:33.534Z,14.80
2023-04-18T07:00:35.991Z,14.80
2023-04-18T07:03:38.306Z,14.80
2023-04-18T07:06:40.602Z,14.80
2023-04-18T07:09:42.894Z,14.90
2023-04-18T07:12:45.249Z,14.90
2023-04-18T07:15:47.649Z,14.80
2023-04-18T07:18:49.917Z,14.90
2023-04-18T07:21:52.204Z,14.90
2023-04-18T07:24:54.613Z,14.90
2023-04-18T07:27:56.888Z,14.90
2023-04-18T07:30:59.499Z,14.90
2023-04-18T07:34:01.765Z,14.90
2023-04-18T07:37:04.308Z,14.90
2023-04-18T07:40:07.224Z,14.90
2023-04-18T07:43:09.615Z,15.00
2023-04-18T07:46:11.982Z,15.00
2023-04-18T07:49:14.528Z,15.00
2023-04-18T07:52:16.938Z,15.00
2023-04-18T07:55:19.341Z,15.00
2023-04-18T07:58:21.729Z,15.00
2023-04-18T08:01:25.036Z,15.00
2023-04-18T08:04:29.983Z,15.10
2023-04-18T08:07:32.757Z,15.10
2023-04-18T08:10:35.495Z,15.10
2023-04-18T08:13:37.887Z,15.10
2023-04-18T08:16:40.237Z,15.10
2023-04-18T08:19:42.491Z,15.20
2023-04-18T08:23:04.237Z,15.20
2023-04-18T08:26:07.058Z,15.20
2023-04-18T08:29:09.544Z,15.20
2023-04-18T08:32:11.785Z,15.20
2023-04-18T08:35:14.112Z,15.20
2023-04-18T08:38:17.467Z,15.30
2023-04-18T08:41:23.798Z,15.30
2023-04-18T08:44:29.529Z,15.30
2023-04-18T08:47:32.057Z,15.30
2023-04-18T08:50:34.628Z,15.30
2023-04-18T08:53:37.003Z,15.40
2023-04-18T08:56:39.281Z,15.40
2023-04-18T08:59:43.812Z,15.40
2023-04-18T09:02:47.439Z,15.40
2023-04-18T09:06:09.319Z,15.50
2023-04-18T09:09:11.605Z,15.50
2023-04-18T09:12:18.538Z,15.50
2023-04-18T09:15:27.493Z,15.50
2023-04-18T09:18:31.131Z,15.50
2023-04-18T09:21:33.433Z,15.50
2023-04-18T09:24:35.961Z,15.60
2023-04-18T09:27:38.310Z,15.60
2023-04-18T09:30:42.389Z,15.60
2023-04-18T09:33:57.111Z,15.60
2023-04-18T09:37:13.854Z,15.60
2023-04-18T09:40:18.944Z,15.60
2023-04-18T09:43:21.594Z,15.60
2023-04-18T09:46:24.190Z,15.70
2023-04-18T09:49:27.409Z,15.70
2023-04-18T09:52:37.710Z,15.70
2023-04-18T09:55:41.780Z,15.70
2023-04-18T09:58:47.436Z,15.70
2023-04-18T10:01:50.968Z,15.70
2023-04-18T10:04:56.140Z,15.70
2023-04-18T10:07:58.703Z,15.70
2023-04-18T10:11:01.389Z,15.80
2023-04-18T10:14:09.881Z,15.80
2023-04-18T10:17:14.325Z,15.80
2023-04-18T10:20:18.353Z,15.80
2023-04-18T10:23:34.876Z,15.80
2023-04-18T10:26:47.550Z,15.80
2023-04-18T10:29:52.001Z,15.80
2023-04-18T10:32:55.920Z,15.80
2023-04-18T10:36:03.780Z,15.80
2023-04-18T10:39:23.654Z,15.80
2023-04-18T10:42:47.705Z,15.80
2023-04-18T10:46:24.029Z,15.80
2023-04-18T10:49:34.728Z,15.80
2023-04-18T10:52:37.088Z,15.80
2023-04-18T10:55:44.818Z,15.90
2023-04-18T10:58:51.673Z,15.90
2023-04-18T11:01:57.472Z,15.80
2023-04-18T11:05:00.795Z,15.90
2023-04-18T11:08:03.075Z,15.90
2023-04-18T11:11:09.566Z,15.90
2023-04-18T11:14:12.107Z,15.90
2023-04-18T11:17:29.416Z,15.90
2023-04-18T11:20:39.382Z,15.90
2023-04-18T11:23:41.726Z,15.90
2023-04-18T11:26:44.806Z,15.90
2023-04-18T11:29:53.650Z,15.90
2023-04-18T11:32:56.166Z,15.90
2023-04-18T11:35:59.841Z,15.90
2023-04-18T11:39:02.292Z,16.00
2023-04-18T11:42:05.235Z,16.00
2023-04-18T11:45:16.156Z,16.00
2023-04-18T11:48:19.295Z,16.00
2023-04-18T11:51:46.382Z,16.00
2023-04-18T11:54:48.765Z,16.00
2023-04-18T11:57:53.949Z,16.00
2023-04-18T12:00:56.352Z,16.00
2023-04-18T12:04:06.987Z,16.00
2023-04-18T12:07:09.567Z,16.00
2023-04-18T12:10:21.153Z,16.00
2023-04-18T12:13:31.921Z,16.00
2023-04-18T12:16:34.295Z,16.00
2023-04-18T12:19:37.462Z,16.00
2023-04-18T12:22:45.780Z,16.00
2023-04-18T12:26:01.662Z,16.00
2023-04-18T12:29:03.814Z,16.00
2023-04-18T12:32:06.403Z,16.10
2023-04-18T12:35:09.247Z,16.00
2023-04-18T12:38:11.663Z,16.10
2023-04-18T12:41:13.951Z,16.10
2023-04-18T12:44:19.187Z,16.10
2023-04-18T12:47:21.490Z,16.10
2023-04-18T12:50:26.161Z,16.10
2023-04-18T12:53:28.436Z,16.10
2023-04-18T12:56:30.778Z,16.10
2023-04-18T12:59:32.997Z,16.10
2023-04-18T13:02:37.558Z,16.10
2023-04-18T13:05:39.988Z,16.10
2023-04-18T13:08:42.882Z,16.10
2023-04-18T13:11:45.235Z,16.10
2023-04-18T13:14:47.623Z,16.10
2023-04-18T13:17:50.524Z,16.10
2023-04-18T13:20:54.058Z,16.10
2023-04-18T13:23:56.314Z,16.10
2023-04-18T13:26:59.449Z,16.10
2023-04-18T13:30:01.839Z,16.20
2023-04-18T13:33:04.399Z,16.20
2023-04-18T13:36:07.069Z,16.10
2023-04-18T13:39:10.794Z,16.20
2023-04-18T13:42:15.417Z,16.20
2023-04-18T13:45:18.838Z,16.10
2023-04-18T13:48:21.151Z,16.20
2023-04-18T13:51:23.390Z,16.20
2023-04-18T13:54:30.482Z,16.20
2023-04-18T13:57:33.785Z,16.20
2023-04-18T14:00:35.982Z,16.20
2023-04-18T14:03:39.880Z,16.20
2023-04-18T14:06:43.872Z,16.20
2023-04-18T14:09:48.371Z,16.20
2023-04-18T14:12:51.247Z,16.20
2023-04-18T14:15:54.156Z,16.20
2023-04-18T14:18:57.243Z,16.20
2023-04-18T14:21:59.478Z,16.20
2023-04-18T14:25:01.763Z,16.20
2023-04-18T14:28:11.218Z,16.20
2023-04-18T14:31:14.439Z,16.20
2023-04-18T14:34:16.656Z,16.20
2023-04-18T14:37:19.008Z,16.20
2023-04-18T14:40:22.364Z,16.20
2023-04-18T14:43:25.162Z,16.20
2023-04-18T14:46:28.534Z,16.20
2023-04-18T14:49:30.827Z,16.20
2023-04-18T14:52:33.089Z,16.20
2023-04-18T14:55:35.451Z,16.20
2023-04-18T14:58:37.788Z,16.20
2023-04-18T15:01:41.724Z,16.20
2023-04-18T15:04:44.346Z,16.20
2023-04-18T15:07:48.066Z,16.20
2023-04-18T15:10:50.403Z,16.20
2023-04-18T15:13:52.660Z,16.20
2023-04-18T15:16:54.919Z,16.30
2023-04-18T15:19:59.041Z,16.30
2023-04-18T15:23:01.956Z,16.40
2023-04-18T15:26:04.322Z,16.50
2023-04-18T15:29:06.812Z,16.50
2023-04-18T15:32:10.024Z,16.60
2023-04-18T15:35:13.087Z,16.60
2023-04-18T15:38:15.408Z,16.70
2023-04-18T15:41:17.645Z,16.70
2023-04-18T15:44:20.102Z,16.70
2023-04-18T15:47:22.525Z,16.70
2023-04-18T15:50:24.821Z,16.80
2023-04-18T15:53:27.115Z,16.80
2023-04-18T15:56:31.747Z,16.80
2023-04-18T15:59:36.197Z,16.80
2023-04-18T16:02:38.615Z,16.90
2023-04-18T16:05:41.036Z,16.90
2023-04-18T16:08:43.275Z,16.90
2023-04-18T16:11:45.694Z,16.90
2023-04-18T16:14:48.027Z,16.90
2023-04-18T16:17:50.591Z,16.90
2023-04-18T16:20:52.944Z,16.90
2023-04-18T16:23:55.097Z,17.00
2023-04-18T16:26:57.699Z,17.00
2023-04-18T16:29:59.948Z,17.00
2023-04-18T16:33:02.428Z,17.00
2023-04-18T16:36:05.378Z,17.00
2023-04-18T16:39:07.649Z,17.00
2023-04-18T16:42:09.894Z,17.00
2023-04-18T16:45:12.235Z,17.00
2023-04-18T16:48:14.887Z,17.00
2023-04-18T16:51:17.082Z,17.00
2023-04-18T16:54:19.474Z,17.00
2023-04-18T16:57:21.752Z,17.00
2023-04-18T17:00:24.018Z,17.00
2023-04-18T17:03:26.329Z,17.00
2023-04-18T17:06:28.643Z,17.00
2023-04-18T17:09:31.156Z,17.00
2023-04-18T17:12:33.478Z,17.00
2023-04-18T17:15:36.276Z,17.00
2023-04-18T17:18:38.597Z,17.10
2023-04-18T17:21:40.807Z,17.00
2023-04-18T17:24:43.010Z,17.00
2023-04-18T17:27:45.456Z,17.00
2023-04-18T17:30:47.854Z,17.00
2023-04-18T17:33:51.005Z,17.10
2023-04-18T17:36:53.328Z,17.00
2023-04-18T17:39:57.355Z,17.00
2023-04-18T17:42:59.597Z,17.00
2023-04-18T17:46:03.879Z,17.00
2023-04-18T17:49:06.323Z,17.00
2023-04-18T17:52:08.610Z,17.00
2023-04-18T17:55:10.962Z,17.00
2023-04-18T17:58:13.198Z,17.00
2023-04-18T18:01:17.676Z,16.90
2023-04-18T18:04:20.535Z,16.90
2023-04-18T18:07:23.010Z,16.90
2023-04-18T18:10:25.421Z,16.90
2023-04-18T18:13:27.578Z,16.90
2023-04-18T18:16:29.879Z,16.90
2023-04-18T18:19:32.190Z,16.90
2023-04-18T18:22:34.603Z,16.90
2023-04-18T18:25:40.442Z,16.90
2023-04-18T18:28:42.692Z,16.90
2023-04-18T18:31:45.075Z,16.90
2023-04-18T18:34:47.511Z,16.90
2023-04-18T18:37:49.855Z,16.80
2023-04-18T18:40:52.229Z,16.80
2023-04-18T18:43:54.575Z,16.80
2023-04-18T18:46:57.773Z,16.80
2023-04-18T18:50:00.043Z,16.80
2023-04-18T18:53:02.423Z,16.80
2023-04-18T18:56:04.920Z,16.80
2023-04-18T18:59:07.222Z,16.80
2023-04-18T19:02:09.577Z,16.80
2023-04-18T19:05:12.934Z,16.80
2023-04-18T19:08:15.694Z,16.80
2023-04-18T19:11:19.416Z,16.70
2023-04-18T19:14:21.865Z,16.70
2023-04-18T19:17:25.016Z,16.70
2023-04-18T19:20:29.147Z,16.70
2023-04-18T19:23:31.623Z,16.70
2023-04-18T19:26:33.906Z,16.70
2023-04-18T19:29:36.487Z,16.70
2023-04-18T19:32:38.968Z,16.70
2023-04-18T19:35:41.566Z,16.70
2023-04-18T19:38:43.929Z,16.70
2023-04-18T19:41:46.215Z,16.70
2023-04-18T19:44:48.627Z,16.70
2023-04-18T19:47:51.137Z,16.70
2023-04-18T19:50:53.764Z,16.70
2023-04-18T19:53:56.186Z,16.70
2023-04-18T19:56:58.942Z,16.70
2023-04-18T20:00:01.588Z,16.70
2023-04-18T20:03:17.199Z,16.70
2023-04-18T20:06:20.307Z,16.70
2023-04-18T20:09:22.557Z,16.70
2023-04-18T20:12:25.014Z,16.70
2023-04-18T20:15:30.650Z,16.70
2023-04-18T20:18:35.986Z,16.70
2023-04-18T20:21:38.238Z,16.60
2023-04-18T20:24:40.487Z,16.60
2023-04-18T20:27:42.647Z,16.60
2023-04-18T20:30:45.962Z,16.60
2023-04-18T20:33:48.402Z,16.60
2023-04-18T20:36:52.618Z,16.60
2023-04-18T20:39:55.998Z,16.60
2023-04-18T20:42:58.663Z,16.60
2023-04-18T20:46:01.306Z,16.60
2023-04-18T20:49:03.652Z,16.60
2023-04-18T20:52:12.026Z,16.60
2023-04-18T20:55:14.507Z,16.60
2023-04-18T20:58:17.035Z,16.60
2023-04-18T21:01:19.241Z,16.60
2023-04-18T21:04:21.682Z,16.60
2023-04-18T21:07:24.054Z,16.50
2023-04-18T21:10:26.914Z,16.60
2023-04-18T21:13:29.191Z,16.50
2023-04-18T21:16:31.421Z,16.60
2023-04-18T21:19:33.683Z,16.60
2023-04-18T21:22:35.998Z,16.50
2023-04-18T21:25:38.195Z,16.50
2023-04-18T21:29:01.083Z,16.50
2023-04-18T21:32:03.788Z,16.50
2023-04-18T21:35:06.794Z,16.50
2023-04-18T21:38:08.959Z,16.50
2023-04-18T21:41:13.753Z,16.50
2023-04-18T21:44:18.915Z,16.50
2023-04-18T21:47:21.469Z,16.50
2023-04-18T21:50:23.877Z,16.50
2023-04-18T21:53:26.054Z,16.50
2023-04-18T21:56:28.289Z,16.50
2023-04-18T21:59:30.947Z,16.50
2023-04-18T22:02:33.750Z,16.50
2023-04-18T22:05:37.359Z,16.50
2023-04-18T22:08:39.660Z,16.50
2023-04-18T22:11:41.896Z,16.50
2023-04-18T22:14:48.489Z,16.50
2023-04-18T22:17:52.275Z,16.50
2023-04-18T22:20:55.005Z,16.50
2023-04-18T22:23:57.301Z,16.50
2023-04-18T22:26:59.963Z,16.50
2023-04-18T22:30:02.297Z,16.50
2023-04-18T22:33:04.558Z,16.40
2023-04-18T22:36:07.075Z,16.40
2023-04-18T22:39:09.389Z,16.40
2023-04-18T22:42:11.684Z,16.40
2023-04-18T22:45:13.877Z,16.40
2023-04-18T22:48:17.336Z,16.40
2023-04-18T22:51:20.451Z,16.40
2023-04-18T22:54:22.952Z,16.40
2023-04-18T22:57:25.268Z,16.40
2023-04-18T23:00:27.478Z,16.40
2023-04-18T23:03:32.166Z,16.40
2023-04-18T23:06:35.666Z,16.40
2023-04-18T23:09:37.999Z,16.40
2023-04-18T23:12:40.245Z,16.40
2023-04-18T23:15:42.520Z,16.40
2023-04-18T23:18:44.814Z,16.40
2023-04-18T23:21:48.367Z,16.40
2023-04-18T23:24:51.914Z,16.40
2023-04-18T23:27:54.199Z,16.40
2023-04-18T23:30:56.441Z,16.40
2023-04-18T23:33:59.004Z,16.40
2023-04-18T23:37:01.339Z,16.30
2023-04-18T23:40:06.977Z,16.40
2023-04-18T23:43:09.333Z,16.30
2023-04-18T23:46:13.368Z,16.30
2023-04-18T23:49:16.408Z,16.30
2023-04-18T23:52:18.674Z,16.30
2023-04-18T23:55:20.982Z,16.30
2023-04-18T23:58:23.274Z,16.30
